createdAt,value
2022-11-16T00:01:36.218Z,100476.16
2022-11-16T00:04:04.452Z,100467.63
2022-11-16T00:06:32.003Z,100466.88
2022-11-16T00:09:19.306Z,100464.38
2022-11-16T00:11:51.130Z,100458.25
2022-11-16T00:14:18.818Z,100468.66
2022-11-16T00:16:46.387Z,100463.47
2022-11-16T00:19:13.958Z,100468.75
2022-11-16T00:21:41.733Z,100466.41
2022-11-16T00:24:12.911Z,100458.63
2022-11-16T00:26:40.409Z,100461.28
2022-11-16T00:29:14.378Z,100460.56
2022-11-16T00:31:42.198Z,100461.47
2022-11-16T00:34:09.767Z,100461.56
2022-11-16T00:36:37.371Z,100466.84
2022-11-16T00:39:05.398Z,100453.19
2022-11-16T00:41:32.926Z,100456.78
2022-11-16T00:44:00.498Z,100457.75
2022-11-16T00:46:29.647Z,100454.41
2022-11-16T00:48:57.149Z,100444.03
2022-11-16T00:51:24.732Z,100451.13
2022-11-16T00:53:52.428Z,100442.59
2022-11-16T00:56:20.576Z,100437.56
2022-11-16T00:58:48.127Z,100436.81
2022-11-16T01:01:15.897Z,100437.66
2022-11-16T01:03:45.985Z,100432.47
2022-11-16T01:06:15.944Z,100423.13
2022-11-16T01:08:44.553Z,100432.84
2022-11-16T01:11:32.257Z,100427.66
2022-11-16T01:13:59.743Z,100429.38
2022-11-16T01:16:27.241Z,100429.38
2022-11-16T01:18:56.197Z,100438.13
2022-11-16T01:21:24.702Z,100438.94
2022-11-16T01:23:53.067Z,100438.03
2022-11-16T01:26:20.838Z,100438.94
2022-11-16T01:28:48.525Z,100444.88
2022-11-16T01:31:16.075Z,100437.91
2022-11-16T01:33:43.632Z,100441.38
2022-11-16T01:36:28.424Z,100446.63
2022-11-16T01:38:58.154Z,100455.34
2022-11-16T01:41:29.917Z,100449.16
2022-11-16T01:44:02.395Z,100456.84
2022-11-16T01:46:35.743Z,100444.69
2022-11-16T01:49:07.942Z,100444.78
2022-11-16T01:51:38.397Z,100443.09
2022-11-16T01:54:09.626Z,100437.16
2022-11-16T01:56:40.413Z,100427.72
2022-11-16T01:59:12.610Z,100427.13
2022-11-16T02:01:40.615Z,100437.72
2022-11-16T02:04:11.057Z,100435.28
2022-11-16T02:07:00.154Z,100433.69
2022-11-16T02:09:55.874Z,100422.66
2022-11-16T02:13:01.643Z,100408.09
2022-11-16T02:15:42.201Z,100394.28
2022-11-16T02:18:25.674Z,100406.44
2022-11-16T02:21:24.697Z,100403.91
2022-11-16T02:24:12.730Z,100409.19
2022-11-16T02:27:08.724Z,100410.00
2022-11-16T02:29:40.726Z,100415.97
2022-11-16T02:32:13.174Z,100399.47
2022-11-16T02:34:46.155Z,100396.88
2022-11-16T02:37:19.129Z,100390.94
2022-11-16T02:39:48.997Z,100384.06
2022-11-16T02:42:22.700Z,100381.66
2022-11-16T02:44:53.640Z,100374.91
2022-11-16T02:47:28.704Z,100373.38
2022-11-16T02:50:01.387Z,100363.09
2022-11-16T02:52:30.151Z,100369.13
2022-11-16T02:54:57.923Z,100358.00
2022-11-16T02:57:39.224Z,100363.38
2022-11-16T03:00:16.739Z,100346.97
2022-11-16T03:02:52.119Z,100357.41
2022-11-16T03:05:31.914Z,100353.16
2022-11-16T03:08:09.361Z,100367.88
2022-11-16T03:11:00.085Z,100361.88
2022-11-16T03:13:31.957Z,100366.22
2022-11-16T03:16:02.801Z,100358.34
2022-11-16T03:18:32.544Z,100350.56
2022-11-16T03:21:07.920Z,100367.88
2022-11-16T03:23:35.610Z,100366.22
2022-11-16T03:26:08.054Z,100359.34
2022-11-16T03:28:48.232Z,100355.94
2022-11-16T03:31:22.476Z,100350.75
2022-11-16T03:33:56.063Z,100352.50
2022-11-16T03:36:30.148Z,100350.84
2022-11-16T03:39:02.340Z,100337.78
2022-11-16T03:41:32.677Z,100337.78
2022-11-16T03:44:01.575Z,100350.75
2022-11-16T03:46:30.466Z,100357.63
2022-11-16T03:48:59.672Z,100361.94
2022-11-16T03:51:31.165Z,100364.47
2022-11-16T03:53:59.055Z,100359.19
2022-11-16T03:56:26.797Z,100360.00
2022-11-16T03:58:54.335Z,100351.31
2022-11-16T04:01:22.012Z,100348.66
2022-11-16T04:03:51.601Z,100342.63
2022-11-16T04:06:37.999Z,100327.91
2022-11-16T04:09:23.793Z,100333.91
2022-11-16T04:12:10.083Z,100334.75
2022-11-16T04:14:56.516Z,100327.81
2022-11-16T04:17:44.474Z,100322.53
2022-11-16T04:20:34.486Z,100318.19
2022-11-16T04:23:27.812Z,100321.59
2022-11-16T04:25:56.132Z,100323.28
2022-11-16T04:28:29.572Z,100316.31
2022-11-16T04:31:20.152Z,100317.19
2022-11-16T04:34:16.280Z,100309.31
2022-11-16T04:37:08.197Z,100319.59
2022-11-16T04:39:36.368Z,100318.66
2022-11-16T04:42:15.127Z,100314.28
2022-11-16T04:45:01.839Z,100316.81
2022-11-16T04:47:35.687Z,100314.13
2022-11-16T04:50:03.516Z,100308.09
2022-11-16T04:52:32.533Z,100313.28
2022-11-16T04:55:00.244Z,100308.94
2022-11-16T04:57:29.246Z,100298.47
2022-11-16T04:59:57.232Z,100298.38
2022-11-16T05:02:25.182Z,100294.97
2022-11-16T05:04:56.851Z,100301.72
2022-11-16T05:07:25.701Z,100294.69
2022-11-16T05:10:01.622Z,100292.09
2022-11-16T05:12:29.524Z,100298.03
2022-11-16T05:15:00.333Z,100301.38
2022-11-16T05:17:31.106Z,100307.28
2022-11-16T05:20:18.290Z,100296.09
2022-11-16T05:22:54.528Z,100297.84
2022-11-16T05:25:24.589Z,100299.50
2022-11-16T05:27:52.749Z,100296.81
2022-11-16T05:30:20.512Z,100305.38
2022-11-16T05:32:48.146Z,100300.19
2022-11-16T05:35:17.424Z,100308.81
2022-11-16T05:37:45.487Z,100302.56
2022-11-16T05:40:13.753Z,100303.44
2022-11-16T05:42:48.994Z,100310.28
2022-11-16T05:45:20.970Z,100318.06
2022-11-16T05:47:49.383Z,100321.41
2022-11-16T05:50:17.529Z,100320.47
2022-11-16T05:52:52.580Z,100318.66
2022-11-16T05:55:20.149Z,100319.38
2022-11-16T05:57:49.068Z,100321.97
2022-11-16T06:00:17.563Z,100325.31
2022-11-16T06:02:49.416Z,100325.31
2022-11-16T06:05:24.380Z,100320.94
2022-11-16T06:07:52.450Z,100327.81
2022-11-16T06:10:20.135Z,100327.81
2022-11-16T06:12:51.748Z,100320.78
2022-11-16T06:15:19.815Z,100325.97
2022-11-16T06:17:48.379Z,100325.06
2022-11-16T06:20:17.395Z,100331.06
2022-11-16T06:22:46.425Z,100328.47
2022-11-16T06:25:14.434Z,100335.25
2022-11-16T06:27:44.471Z,100337.00
2022-11-16T06:30:17.411Z,100343.13
2022-11-16T06:32:45.605Z,100338.59
2022-11-16T06:35:13.176Z,100343.78
2022-11-16T06:37:40.947Z,100342.88
2022-11-16T06:40:10.446Z,100343.59
2022-11-16T06:42:42.715Z,100330.53
2022-11-16T06:45:12.182Z,100340.91
2022-11-16T06:47:45.320Z,100346.03
2022-11-16T06:50:13.016Z,100334.78
2022-11-16T06:52:40.628Z,100341.56
2022-11-16T06:55:09.694Z,100348.31
2022-11-16T06:57:38.583Z,100344.72
2022-11-16T07:00:09.076Z,100340.34
2022-11-16T07:02:38.420Z,100350.66
2022-11-16T07:05:09.820Z,100349.66
2022-11-16T07:07:37.707Z,100354.75
2022-11-16T07:10:06.353Z,100356.31
2022-11-16T07:12:34.125Z,100351.22
2022-11-16T07:15:02.742Z,100353.72
2022-11-16T07:17:33.546Z,100351.97
2022-11-16T07:20:01.163Z,100355.31
2022-11-16T07:22:31.251Z,100357.72
2022-11-16T07:25:00.008Z,100374.94
2022-11-16T07:27:28.856Z,100368.75
2022-11-16T07:29:56.384Z,100366.06
2022-11-16T07:32:43.069Z,100370.34
2022-11-16T07:35:20.075Z,100364.22
2022-11-16T07:37:49.188Z,100371.00
2022-11-16T07:40:17.328Z,100362.25
2022-11-16T07:42:46.420Z,100369.03
2022-11-16T07:45:24.947Z,100360.22
2022-11-16T07:47:58.162Z,100363.66
2022-11-16T07:50:45.694Z,100365.31
2022-11-16T07:53:15.054Z,100357.63
2022-11-16T07:55:42.631Z,100356.88
2022-11-16T07:58:10.589Z,100356.88
2022-11-16T08:00:38.798Z,100369.97
2022-11-16T08:03:16.479Z,100369.97
2022-11-16T08:05:47.246Z,100371.00
2022-11-16T08:08:16.193Z,100378.78
2022-11-16T08:10:43.817Z,100369.13
2022-11-16T08:13:12.254Z,100371.00
2022-11-16T08:15:40.540Z,100368.50
2022-11-16T08:18:10.207Z,100368.50
2022-11-16T08:20:38.444Z,100365.97
2022-11-16T08:23:06.654Z,100359.09
2022-11-16T08:25:38.142Z,100370.53
2022-11-16T08:28:06.513Z,100363.56
2022-11-16T08:30:35.440Z,100369.66
2022-11-16T08:33:02.961Z,100359.47
2022-11-16T08:35:30.583Z,100364.56
2022-11-16T08:37:58.635Z,100353.19
2022-11-16T08:40:30.668Z,100350.66
2022-11-16T08:43:48.357Z,100357.63
2022-11-16T08:46:30.531Z,100352.34
2022-11-16T08:49:08.832Z,100347.97
2022-11-16T08:51:42.516Z,100347.06
2022-11-16T08:54:10.515Z,100336.69
2022-11-16T08:56:42.443Z,100342.78
2022-11-16T08:59:12.492Z,100328.13
2022-11-16T09:01:46.530Z,100341.19
2022-11-16T09:04:17.395Z,100336.09
2022-11-16T09:06:45.642Z,100326.56
2022-11-16T09:12:18.120Z,100319.78
2022-11-16T09:14:47.636Z,100329.34
2022-11-16T09:17:21.754Z,100329.97
2022-11-16T09:19:51.503Z,100328.97
2022-11-16T09:22:21.612Z,100323.69
2022-11-16T09:24:53.220Z,100320.25
2022-11-16T09:27:23.657Z,100320.25
2022-11-16T09:29:52.955Z,100329.91
2022-11-16T09:32:23.682Z,100316.09
2022-11-16T09:34:51.464Z,100316.81
2022-11-16T09:37:19.566Z,100315.81
2022-11-16T09:39:47.564Z,100315.69
2022-11-16T09:42:34.376Z,100306.88
2022-11-16T09:45:08.399Z,100301.69
2022-11-16T09:47:49.364Z,100290.66
2022-11-16T09:50:28.096Z,100303.84
2022-11-16T09:53:01.571Z,100296.13
2022-11-16T09:55:34.901Z,100294.53
2022-11-16T09:58:16.267Z,100297.13
2022-11-16T10:00:51.548Z,100290.28
2022-11-16T10:03:19.676Z,100295.59
2022-11-16T10:05:54.567Z,100292.25
2022-11-16T10:08:30.220Z,100286.09
2022-11-16T10:11:06.598Z,100291.22
2022-11-16T10:13:47.809Z,100293.81
2022-11-16T10:16:31.270Z,100292.97
2022-11-16T10:19:11.960Z,100284.38
2022-11-16T10:21:52.996Z,100281.00
2022-11-16T10:24:34.497Z,100282.03
2022-11-16T10:27:22.135Z,100286.38
2022-11-16T10:30:03.144Z,100277.88
2022-11-16T10:32:38.082Z,100272.66
2022-11-16T10:35:16.882Z,100281.41
2022-11-16T10:37:49.946Z,100269.34
2022-11-16T10:40:21.578Z,100275.44
2022-11-16T10:43:00.144Z,100266.00
2022-11-16T10:45:34.162Z,100261.72
2022-11-16T10:48:10.150Z,100258.31
2022-11-16T10:50:40.402Z,100263.50
2022-11-16T10:53:08.092Z,100260.81
2022-11-16T10:55:36.249Z,100253.03
2022-11-16T10:58:06.192Z,100253.03
2022-11-16T11:00:41.453Z,100260.06
2022-11-16T11:03:12.257Z,100266.19
2022-11-16T11:05:49.968Z,100263.59
2022-11-16T11:08:26.950Z,100257.56
2022-11-16T11:11:22.591Z,100254.97
2022-11-16T11:14:04.849Z,100255.91
2022-11-16T11:16:32.641Z,100249.88
2022-11-16T11:19:18.413Z,100252.66
2022-11-16T11:21:46.270Z,100265.56
2022-11-16T11:24:43.462Z,100256.00
2022-11-16T11:27:05.375Z,100249.13
2022-11-16T11:29:37.562Z,100260.34
2022-11-16T11:32:07.864Z,100260.25
2022-11-16T11:34:42.887Z,100259.50
2022-11-16T11:37:16.204Z,100248.28
2022-11-16T11:40:20.520Z,100263.88
2022-11-16T11:43:00.447Z,100272.47
2022-11-16T11:45:41.653Z,100262.84
2022-11-16T11:48:25.275Z,100262.09
2022-11-16T11:50:56.140Z,100258.69
2022-11-16T11:53:40.233Z,100263.97
2022-11-16T11:56:11.333Z,100261.34
2022-11-16T11:58:41.052Z,100260.53
2022-11-16T12:01:46.847Z,100263.13
2022-11-16T12:04:47.659Z,100252.75
2022-11-16T12:07:26.344Z,100257.13
2022-11-16T12:10:02.214Z,100253.66
2022-11-16T12:12:48.369Z,100262.31
2022-11-16T12:15:45.575Z,100254.53
2022-11-16T12:18:30.758Z,100263.97
2022-11-16T12:21:06.792Z,100250.97
2022-11-16T12:23:59.877Z,100262.19
2022-11-16T12:26:39.264Z,100263.97
2022-11-16T12:29:24.981Z,100263.13
2022-11-16T12:32:23.362Z,100261.34
2022-11-16T12:35:04.714Z,100258.75
2022-11-16T12:37:40.084Z,100263.03
2022-11-16T12:40:27.017Z,100264.69
2022-11-16T12:43:03.161Z,100264.59
2022-11-16T12:45:49.849Z,100263.69
2022-11-16T12:48:45.511Z,100262.78
2022-11-16T12:51:31.630Z,100248.94
2022-11-16T12:54:15.078Z,100253.31
2022-11-16T12:56:51.697Z,100257.56
2022-11-16T12:59:31.971Z,100251.34
2022-11-16T13:02:10.845Z,100255.81
2022-11-16T13:04:43.304Z,100256.63
2022-11-16T13:07:15.259Z,100257.44
2022-11-16T13:09:47.608Z,100257.44
2022-11-16T13:12:19.729Z,100259.22
2022-11-16T13:14:50.585Z,100253.84
2022-11-16T13:17:23.055Z,100255.63
2022-11-16T13:20:16.605Z,100262.47
2022-11-16T13:22:51.985Z,100244.28
2022-11-16T13:25:28.356Z,100246.78
2022-11-16T13:28:04.772Z,100244.28
2022-11-16T13:30:41.933Z,100239.88
2022-11-16T13:33:28.977Z,100228.53
2022-11-16T13:35:56.953Z,100230.94
2022-11-16T13:38:50.641Z,100240.50
2022-11-16T13:41:29.221Z,100229.25
2022-11-16T13:43:57.148Z,100227.53
2022-11-16T13:46:54.043Z,100231.84
2022-11-16T13:49:31.014Z,100227.44
2022-11-16T13:52:17.286Z,100225.75
2022-11-16T13:54:52.308Z,100222.22
2022-11-16T13:57:24.160Z,100229.84
2022-11-16T14:00:08.959Z,100226.09
2022-11-16T14:02:37.716Z,100221.66
2022-11-16T14:05:15.812Z,100223.31
2022-11-16T14:07:46.438Z,100236.22
2022-11-16T14:10:55.923Z,100227.59
2022-11-16T14:13:49.239Z,100243.19
2022-11-16T14:16:48.953Z,100234.53
2022-11-16T14:19:58.596Z,100231.84
2022-11-16T14:22:51.156Z,100231.03
2022-11-16T14:25:30.677Z,100220.72
2022-11-16T14:28:16.909Z,100224.25
2022-11-16T14:30:56.789Z,100225.91
2022-11-16T14:33:32.681Z,100224.25
2022-11-16T14:36:03.696Z,100222.50
2022-11-16T14:38:47.535Z,100226.09
2022-11-16T14:41:22.746Z,100227.03
2022-11-16T14:43:58.554Z,100220.09
2022-11-16T14:46:34.149Z,100225.38
2022-11-16T14:49:03.771Z,100221.97
2022-11-16T14:51:35.216Z,100215.91
2022-11-16T14:54:16.625Z,100219.34
2022-11-16T14:57:04.811Z,100215.91
2022-11-16T14:59:38.965Z,100214.25
2022-11-16T15:02:21.835Z,100214.16
2022-11-16T15:04:53.463Z,100217.69
2022-11-16T15:07:24.423Z,100221.09
2022-11-16T15:09:56.430Z,100214.25
2022-11-16T15:12:46.341Z,100218.59
2022-11-16T15:15:19.086Z,100219.53
2022-11-16T15:17:53.322Z,100220.38
2022-11-16T15:20:24.597Z,100219.44
2022-11-16T15:22:54.189Z,100214.03
2022-11-16T15:29:48.371Z,100224.56
2022-11-16T15:32:17.899Z,100220.19
2022-11-16T15:34:48.759Z,100216.63
2022-11-16T15:37:28.044Z,100214.25
2022-11-16T15:39:56.847Z,100210.91
2022-11-16T15:42:26.652Z,100213.59
2022-11-16T15:44:56.345Z,100211.94
2022-11-16T15:47:24.687Z,100207.66
2022-11-16T15:49:53.084Z,100199.97
2022-11-16T15:52:43.287Z,100206.22
2022-11-16T15:55:34.040Z,100209.72
2022-11-16T15:58:08.031Z,100203.69
2022-11-16T16:00:38.354Z,100202.03
2022-11-16T16:03:15.736Z,100205.53
2022-11-16T16:06:05.919Z,100207.41
2022-11-16T16:08:35.252Z,100194.41
2022-11-16T16:11:06.507Z,100194.41
2022-11-16T16:13:37.147Z,100206.47
2022-11-16T16:16:24.762Z,100202.22
2022-11-16T16:18:53.400Z,100201.28
2022-11-16T16:21:21.194Z,100205.75
2022-11-16T16:23:50.413Z,100203.34
2022-11-16T16:26:18.667Z,100206.84
2022-11-16T16:28:46.870Z,100192.22
2022-11-16T16:31:18.537Z,100206.13
2022-11-16T16:33:45.987Z,100204.44
2022-11-16T16:36:13.639Z,100205.28
2022-11-16T16:38:41.109Z,100207.97
2022-11-16T16:41:08.873Z,100208.06
2022-11-16T16:43:36.768Z,100201.19
2022-11-16T16:46:05.211Z,100207.31
2022-11-16T16:48:34.024Z,100204.72
2022-11-16T16:51:01.501Z,100208.25
2022-11-16T16:53:29.299Z,100210.03
2022-11-16T16:55:56.773Z,100202.25
2022-11-16T16:58:24.209Z,100207.44
2022-11-16T17:00:53.727Z,100203.16
2022-11-16T17:03:24.400Z,100197.97
2022-11-16T17:05:53.745Z,100201.47
2022-11-16T17:08:21.180Z,100201.47
2022-11-16T17:10:50.742Z,100202.34
2022-11-16T17:13:18.209Z,100207.31
2022-11-16T17:15:45.901Z,100211.50
2022-11-16T17:18:13.376Z,100199.25
2022-11-16T17:20:45.204Z,100203.63
2022-11-16T17:23:15.202Z,100202.88
2022-11-16T17:25:45.246Z,100198.50
2022-11-16T17:28:12.717Z,100202.69
2022-11-16T17:30:40.662Z,100202.69
2022-11-16T17:33:08.283Z,100200.94
2022-11-16T17:35:36.111Z,100209.63
2022-11-16T17:38:03.945Z,100199.44
2022-11-16T17:40:34.464Z,100199.44
2022-11-16T17:43:01.983Z,100215.94
2022-11-16T17:45:29.583Z,100219.38
2022-11-16T17:47:57.065Z,100227.97
2022-11-16T17:50:24.556Z,100227.25
2022-11-16T17:52:58.245Z,100227.34
2022-11-16T17:55:25.809Z,100216.97
2022-11-16T17:57:58.415Z,100215.22
2022-11-16T18:00:26.078Z,100216.03
2022-11-16T18:02:53.556Z,100220.41
2022-11-16T18:05:21.201Z,100223.81
2022-11-16T18:07:49.796Z,100224.66
2022-11-16T18:10:19.352Z,100225.59
2022-11-16T18:12:47.041Z,100224.75
2022-11-16T18:15:27.902Z,100215.31
2022-11-16T18:17:57.123Z,100218.00
2022-11-16T18:20:24.852Z,100209.44
2022-11-16T18:22:52.885Z,100212.03
2022-11-16T18:25:20.388Z,100217.22
2022-11-16T18:27:51.588Z,100225.00
2022-11-16T18:30:21.301Z,100230.03
2022-11-16T18:32:48.884Z,100231.78
2022-11-16T18:35:17.036Z,100226.59
2022-11-16T18:37:44.513Z,100223.28
2022-11-16T18:40:12.354Z,100213.81
2022-11-16T18:42:41.598Z,100222.41
2022-11-16T18:45:09.965Z,100224.94
2022-11-16T18:47:38.929Z,100235.31
2022-11-16T18:50:18.049Z,100225.00
2022-11-16T18:52:46.625Z,100216.41
2022-11-16T18:55:14.158Z,100216.50
2022-11-16T18:57:41.703Z,100198.34
2022-11-16T19:00:11.834Z,100205.38
2022-11-16T19:02:40.720Z,100203.72
2022-11-16T19:05:08.590Z,100209.84
2022-11-16T19:07:36.198Z,100218.53
2022-11-16T19:10:03.787Z,100218.53
2022-11-16T19:12:31.241Z,100208.97
2022-11-16T19:14:58.893Z,100211.50
2022-11-16T19:17:26.996Z,100214.09
2022-11-16T19:19:55.776Z,100218.34
2022-11-16T19:22:23.350Z,100220.94
2022-11-16T19:24:50.825Z,100217.31
2022-11-16T19:27:18.364Z,100218.28
2022-11-16T19:29:45.936Z,100201.00
2022-11-16T19:32:13.371Z,100208.91
2022-11-16T19:34:40.781Z,100213.34
2022-11-16T19:37:09.622Z,100218.53
2022-11-16T19:39:37.182Z,100222.06
2022-11-16T19:42:05.449Z,100217.72
2022-11-16T19:44:33.153Z,100218.53
2022-11-16T19:47:00.584Z,100222.81
2022-11-16T19:49:28.078Z,100221.13
2022-11-16T19:51:55.620Z,100224.66
2022-11-16T19:54:24.442Z,100226.41
2022-11-16T19:56:55.210Z,100235.03
2022-11-16T19:59:23.102Z,100236.88
2022-11-16T20:01:50.559Z,100231.69
2022-11-16T20:04:18.202Z,100236.88
2022-11-16T20:06:45.756Z,100236.88
2022-11-16T20:09:13.289Z,100235.97
2022-11-16T20:11:44.885Z,100238.56
2022-11-16T20:14:13.801Z,100245.41
2022-11-16T20:16:43.228Z,100246.34
2022-11-16T20:19:11.484Z,100255.03
2022-11-16T20:21:40.701Z,100250.69
2022-11-16T20:24:10.745Z,100253.19
2022-11-16T20:26:43.918Z,100239.38
2022-11-16T20:29:12.491Z,100240.22
2022-11-16T20:31:42.533Z,100249.84
2022-11-16T20:34:13.962Z,100249.13
2022-11-16T20:36:43.245Z,100253.50
2022-11-16T20:39:13.882Z,100250.81
2022-11-16T20:41:43.937Z,100248.09
2022-11-16T20:44:16.741Z,100248.94
2022-11-16T20:46:45.232Z,100252.44
2022-11-16T20:49:13.299Z,100254.31
2022-11-16T20:51:40.946Z,100246.53
2022-11-16T20:54:08.498Z,100244.03
2022-11-16T20:56:35.967Z,100250.13
2022-11-16T20:59:05.295Z,100245.78
2022-11-16T21:01:32.828Z,100244.84
2022-11-16T21:04:05.800Z,100251.91
2022-11-16T21:06:34.321Z,100250.50
2022-11-16T21:09:02.245Z,100232.34
2022-11-16T21:11:51.182Z,100246.16
2022-11-16T21:14:19.360Z,100242.72
2022-11-16T21:16:46.966Z,100242.72
2022-11-16T21:19:14.791Z,100245.31
2022-11-16T21:21:42.325Z,100248.09
2022-11-16T21:24:10.406Z,100243.00
2022-11-16T21:26:39.706Z,100246.59
2022-11-16T21:29:07.236Z,100249.28
2022-11-16T21:31:37.698Z,100242.44
2022-11-16T21:34:07.672Z,100246.75
2022-11-16T21:36:36.082Z,100248.44
2022-11-16T21:39:03.640Z,100249.34
2022-11-16T21:41:34.119Z,100256.31
2022-11-16T21:44:01.613Z,100257.06
2022-11-16T21:46:29.155Z,100253.63
2022-11-16T21:48:58.946Z,100251.88
2022-11-16T21:51:28.006Z,100263.19
2022-11-16T21:53:57.110Z,100256.31
2022-11-16T21:56:26.892Z,100258.91
2022-11-16T21:58:55.663Z,100263.28
2022-11-16T22:01:25.403Z,100251.22
2022-11-16T22:04:06.966Z,100253.34
2022-11-16T22:06:54.145Z,100245.72
2022-11-16T22:09:26.433Z,100242.50
2022-11-16T22:11:54.621Z,100250.53
2022-11-16T22:14:22.168Z,100240.31
2022-11-16T22:16:49.620Z,100245.81
2022-11-16T22:19:17.178Z,100244.22
2022-11-16T22:21:45.947Z,100254.66
2022-11-16T22:24:13.442Z,100248.84
2022-11-16T22:26:44.683Z,100243.66
2022-11-16T22:29:13.496Z,100254.09
2022-11-16T22:31:40.944Z,100257.59
2022-11-16T22:34:08.522Z,100250.78
2022-11-16T22:36:36.085Z,100252.50
2022-11-16T22:39:05.092Z,100254.34
2022-11-16T22:41:32.691Z,100252.59
2022-11-16T22:44:00.627Z,100248.41
2022-11-16T22:46:28.179Z,100254.56
2022-11-16T22:48:56.029Z,100255.59
2022-11-16T22:51:25.839Z,100260.06
2022-11-16T22:53:55.020Z,100254.09
2022-11-16T22:56:24.936Z,100249.09
2022-11-16T22:58:52.758Z,100247.50
2022-11-16T23:01:21.186Z,100234.72
2022-11-16T23:03:49.096Z,100239.91
2022-11-16T23:06:18.430Z,100232.97
2022-11-16T23:08:47.505Z,100240.00
2022-11-16T23:11:34.286Z,100240.91
2022-11-16T23:14:22.079Z,100237.56
2022-11-16T23:16:51.028Z,100237.81
2022-11-16T23:19:37.859Z,100231.16
2022-11-16T23:22:24.475Z,100233.91
2022-11-16T23:25:10.569Z,100235.69
2022-11-16T23:27:44.174Z,100228.81
2022-11-16T23:30:16.098Z,100220.97
2022-11-16T23:32:43.952Z,100221.78
2022-11-16T23:35:12.159Z,100211.34
2022-11-16T23:37:53.962Z,100207.09
2022-11-16T23:40:23.405Z,100212.28
2022-11-16T23:43:12.133Z,100219.28
2022-11-16T23:45:42.149Z,100215.94
2022-11-16T23:48:11.146Z,100216.03
2022-11-16T23:50:38.879Z,100209.44
2022-11-16T23:53:07.620Z,100208.03
2022-11-16T23:55:36.262Z,100199.50
2022-11-16T23:58:03.693Z,100199.75
